sensor_id;sensor_type;location;lat;lon;timestamp;temperature;humidity
80540;DHT22;69869;48.036;15.780;2023-07-20T00:02:23;23.40;87.60
80540;DHT22;69869;48.036;15.780;2023-07-20T00:04:49;23.40;87.80
80540;DHT22;69869;48.036;15.780;2023-07-20T00:07:14;23.40;88.00
80540;DHT22;69869;48.036;15.780;2023-07-20T00:09:40;23.40;87.80
80540;DHT22;69869;48.036;15.780;2023-07-20T00:12:06;23.40;87.20
80540;DHT22;69869;48.036;15.780;2023-07-20T00:14:32;23.40;87.30
80540;DHT22;69869;48.036;15.780;2023-07-20T00:16:58;23.30;87.70
80540;DHT22;69869;48.036;15.780;2023-07-20T00:19:27;23.40;87.90
80540;DHT22;69869;48.036;15.780;2023-07-20T00:21:53;23.40;87.80
80540;DHT22;69869;48.036;15.780;2023-07-20T00:24:19;23.40;88.00
80540;DHT22;69869;48.036;15.780;2023-07-20T00:26:45;23.40;87.60
80540;DHT22;69869;48.036;15.780;2023-07-20T00:29:10;23.40;87.80
80540;DHT22;69869;48.036;15.780;2023-07-20T00:31:36;23.40;87.80
80540;DHT22;69869;48.036;15.780;2023-07-20T00:34:03;23.40;87.80
80540;DHT22;69869;48.036;15.780;2023-07-20T00:36:29;23.40;87.80
80540;DHT22;69869;48.036;15.780;2023-07-20T00:38:54;23.40;87.90
80540;DHT22;69869;48.036;15.780;2023-07-20T00:41:20;23.40;87.80
80540;DHT22;69869;48.036;15.780;2023-07-20T00:43:46;23.40;87.80
80540;DHT22;69869;48.036;15.780;2023-07-20T00:46:12;23.40;87.20
80540;DHT22;69869;48.036;15.780;2023-07-20T00:48:37;23.40;87.80
80540;DHT22;69869;48.036;15.780;2023-07-20T00:51:04;23.30;87.80
80540;DHT22;69869;48.036;15.780;2023-07-20T00:53:30;23.40;87.70
80540;DHT22;69869;48.036;15.780;2023-07-20T00:55:56;23.40;87.90
80540;DHT22;69869;48.036;15.780;2023-07-20T00:58:22;23.40;87.70
80540;DHT22;69869;48.036;15.780;2023-07-20T01:00:48;23.40;87.90
80540;DHT22;69869;48.036;15.780;2023-07-20T01:03:13;23.40;87.60
80540;DHT22;69869;48.036;15.780;2023-07-20T01:05:51;23.40;87.80
80540;DHT22;69869;48.036;15.780;2023-07-20T01:08:24;23.40;87.80
80540;DHT22;69869;48.036;15.780;2023-07-20T01:10:59;23.40;87.80
80540;DHT22;69869;48.036;15.780;2023-07-20T01:13:29;23.40;87.70
80540;DHT22;69869;48.036;15.780;2023-07-20T01:16:01;23.40;87.80
80540;DHT22;69869;48.036;15.780;2023-07-20T01:18:27;23.40;87.80
80540;DHT22;69869;48.036;15.780;2023-07-20T01:21:11;23.40;87.90
80540;DHT22;69869;48.036;15.780;2023-07-20T01:24:08;23.40;87.90
80540;DHT22;69869;48.036;15.780;2023-07-20T01:27:25;23.40;88.10
80540;DHT22;69869;48.036;15.780;2023-07-20T01:32:11;23.40;87.70
80540;DHT22;69869;48.036;15.780;2023-07-20T01:34:38;23.40;88.00
80540;DHT22;69869;48.036;15.780;2023-07-20T01:37:05;23.40;87.80
80540;DHT22;69869;48.036;15.780;2023-07-20T01:39:32;23.30;87.40
80540;DHT22;69869;48.036;15.780;2023-07-20T01:41:58;23.40;87.60
80540;DHT22;69869;48.036;15.780;2023-07-20T01:44:24;23.30;87.80
80540;DHT22;69869;48.036;15.780;2023-07-20T01:46:50;23.40;87.80
80540;DHT22;69869;48.036;15.780;2023-07-20T01:49:16;23.40;87.80
80540;DHT22;69869;48.036;15.780;2023-07-20T01:51:41;23.40;88.00
80540;DHT22;69869;48.036;15.780;2023-07-20T01:54:07;23.40;87.50
80540;DHT22;69869;48.036;15.780;2023-07-20T01:56:32;23.40;87.60
80540;DHT22;69869;48.036;15.780;2023-07-20T01:58:58;23.40;87.50
80540;DHT22;69869;48.036;15.780;2023-07-20T02:01:24;23.40;87.80
80540;DHT22;69869;48.036;15.780;2023-07-20T02:03:50;23.40;87.80
80540;DHT22;69869;48.036;15.780;2023-07-20T02:06:16;23.40;87.70
80540;DHT22;69869;48.036;15.780;2023-07-20T02:08:42;23.40;87.80
80540;DHT22;69869;48.036;15.780;2023-07-20T02:11:08;23.40;87.50
80540;DHT22;69869;48.036;15.780;2023-07-20T02:13:35;23.40;87.70
80540;DHT22;69869;48.036;15.780;2023-07-20T02:16:01;23.30;87.70
80540;DHT22;69869;48.036;15.780;2023-07-20T02:18:27;23.40;87.60
80540;DHT22;69869;48.036;15.780;2023-07-20T02:20:53;23.40;87.30
80540;DHT22;69869;48.036;15.780;2023-07-20T02:23:19;23.40;87.80
80540;DHT22;69869;48.036;15.780;2023-07-20T02:25:45;23.40;87.50
80540;DHT22;69869;48.036;15.780;2023-07-20T02:28:13;23.40;87.60
80540;DHT22;69869;48.036;15.780;2023-07-20T02:30:39;23.40;87.60
80540;DHT22;69869;48.036;15.780;2023-07-20T02:33:05;23.40;87.70
80540;DHT22;69869;48.036;15.780;2023-07-20T02:35:32;23.30;87.80
80540;DHT22;69869;48.036;15.780;2023-07-20T02:37:57;23.40;87.80
80540;DHT22;69869;48.036;15.780;2023-07-20T02:40:23;23.30;87.30
80540;DHT22;69869;48.036;15.780;2023-07-20T02:42:49;23.40;87.60
80540;DHT22;69869;48.036;15.780;2023-07-20T02:45:14;23.40;87.60
80540;DHT22;69869;48.036;15.780;2023-07-20T02:47:40;23.40;87.90
80540;DHT22;69869;48.036;15.780;2023-07-20T02:50:07;23.40;87.60
80540;DHT22;69869;48.036;15.780;2023-07-20T02:52:33;23.40;87.80
80540;DHT22;69869;48.036;15.780;2023-07-20T02:54:59;23.30;87.80
80540;DHT22;69869;48.036;15.780;2023-07-20T02:57:25;23.40;87.80
80540;DHT22;69869;48.036;15.780;2023-07-20T02:59:50;23.40;87.80
80540;DHT22;69869;48.036;15.780;2023-07-20T03:02:16;23.30;87.80
80540;DHT22;69869;48.036;15.780;2023-07-20T03:04:42;23.40;87.80
80540;DHT22;69869;48.036;15.780;2023-07-20T03:07:07;23.40;87.80
80540;DHT22;69869;48.036;15.780;2023-07-20T03:09:33;23.40;87.80
80540;DHT22;69869;48.036;15.780;2023-07-20T03:11:59;23.40;87.80
80540;DHT22;69869;48.036;15.780;2023-07-20T03:14:24;23.40;87.80
80540;DHT22;69869;48.036;15.780;2023-07-20T03:16:50;23.40;87.80
80540;DHT22;69869;48.036;15.780;2023-07-20T03:19:16;23.40;87.80
80540;DHT22;69869;48.036;15.780;2023-07-20T03:21:41;23.30;87.50
80540;DHT22;69869;48.036;15.780;2023-07-20T03:24:08;23.30;87.80
80540;DHT22;69869;48.036;15.780;2023-07-20T03:26:35;23.30;87.30
80540;DHT22;69869;48.036;15.780;2023-07-20T03:29:01;23.30;87.20
80540;DHT22;69869;48.036;15.780;2023-07-20T03:31:26;23.40;87.70
80540;DHT22;69869;48.036;15.780;2023-07-20T03:33:52;23.40;87.80
80540;DHT22;69869;48.036;15.780;2023-07-20T03:36:18;23.40;87.50
80540;DHT22;69869;48.036;15.780;2023-07-20T03:38:43;23.30;87.80
80540;DHT22;69869;48.036;15.780;2023-07-20T03:41:09;23.30;87.50
80540;DHT22;69869;48.036;15.780;2023-07-20T03:43:35;23.40;87.80
80540;DHT22;69869;48.036;15.780;2023-07-20T03:46:00;23.40;87.80
80540;DHT22;69869;48.036;15.780;2023-07-20T03:48:29;23.30;87.40
80540;DHT22;69869;48.036;15.780;2023-07-20T03:50:55;23.30;87.80
80540;DHT22;69869;48.036;15.780;2023-07-20T03:53:21;23.30;87.60
80540;DHT22;69869;48.036;15.780;2023-07-20T03:55:47;23.30;87.40
80540;DHT22;69869;48.036;15.780;2023-07-20T03:58:14;23.30;87.80
80540;DHT22;69869;48.036;15.780;2023-07-20T04:00:39;23.30;87.70
80540;DHT22;69869;48.036;15.780;2023-07-20T04:03:06;23.30;87.60
80540;DHT22;69869;48.036;15.780;2023-07-20T04:05:31;23.30;88.10
80540;DHT22;69869;48.036;15.780;2023-07-20T04:07:58;23.30;87.50
80540;DHT22;69869;48.036;15.780;2023-07-20T04:10:24;23.30;87.80
80540;DHT22;69869;48.036;15.780;2023-07-20T04:12:49;23.30;87.50
80540;DHT22;69869;48.036;15.780;2023-07-20T04:15:15;23.40;87.80
80540;DHT22;69869;48.036;15.780;2023-07-20T04:17:41;23.30;87.80
80540;DHT22;69869;48.036;15.780;2023-07-20T04:20:07;23.30;87.80
80540;DHT22;69869;48.036;15.780;2023-07-20T04:22:34;23.30;87.80
80540;DHT22;69869;48.036;15.780;2023-07-20T04:24:59;23.30;87.80
80540;DHT22;69869;48.036;15.780;2023-07-20T04:27:25;23.30;87.60
80540;DHT22;69869;48.036;15.780;2023-07-20T04:29:51;23.30;87.20
80540;DHT22;69869;48.036;15.780;2023-07-20T04:32:17;23.40;87.70
80540;DHT22;69869;48.036;15.780;2023-07-20T04:34:43;23.30;87.70
80540;DHT22;69869;48.036;15.780;2023-07-20T04:37:08;23.30;87.70
80540;DHT22;69869;48.036;15.780;2023-07-20T04:39:34;23.40;87.60
80540;DHT22;69869;48.036;15.780;2023-07-20T04:42:00;23.30;87.20
80540;DHT22;69869;48.036;15.780;2023-07-20T04:44:25;23.30;87.50
80540;DHT22;69869;48.036;15.780;2023-07-20T04:46:51;23.30;87.60
80540;DHT22;69869;48.036;15.780;2023-07-20T04:49:17;23.30;87.60
80540;DHT22;69869;48.036;15.780;2023-07-20T04:51:42;23.30;87.60
80540;DHT22;69869;48.036;15.780;2023-07-20T04:54:08;23.30;87.60
80540;DHT22;69869;48.036;15.780;2023-07-20T04:56:33;23.30;87.80
80540;DHT22;69869;48.036;15.780;2023-07-20T04:58:59;23.30;87.70
80540;DHT22;69869;48.036;15.780;2023-07-20T05:01:25;23.30;87.70
80540;DHT22;69869;48.036;15.780;2023-07-20T05:03:52;23.30;87.80
80540;DHT22;69869;48.036;15.780;2023-07-20T05:06:18;23.30;87.70
80540;DHT22;69869;48.036;15.780;2023-07-20T05:08:44;23.30;87.80
80540;DHT22;69869;48.036;15.780;2023-07-20T05:11:10;23.30;87.50
80540;DHT22;69869;48.036;15.780;2023-07-20T05:13:36;23.30;87.60
80540;DHT22;69869;48.036;15.780;2023-07-20T05:16:02;23.30;87.70
80540;DHT22;69869;48.036;15.780;2023-07-20T05:18:28;23.30;87.70
80540;DHT22;69869;48.036;15.780;2023-07-20T05:20:53;23.30;87.60
80540;DHT22;69869;48.036;15.780;2023-07-20T05:23:21;23.30;87.70
80540;DHT22;69869;48.036;15.780;2023-07-20T05:25:47;23.30;87.60
80540;DHT22;69869;48.036;15.780;2023-07-20T05:28:13;23.30;87.40
80540;DHT22;69869;48.036;15.780;2023-07-20T05:30:40;23.30;87.40
80540;DHT22;69869;48.036;15.780;2023-07-20T05:33:05;23.30;87.60
80540;DHT22;69869;48.036;15.780;2023-07-20T05:35:31;23.30;87.50
80540;DHT22;69869;48.036;15.780;2023-07-20T05:37:57;23.30;87.70
80540;DHT22;69869;48.036;15.780;2023-07-20T05:40:22;23.30;87.60
80540;DHT22;69869;48.036;15.780;2023-07-20T05:42:48;23.30;87.30
80540;DHT22;69869;48.036;15.780;2023-07-20T05:45:17;23.30;87.50
80540;DHT22;69869;48.036;15.780;2023-07-20T05:47:43;23.30;87.40
80540;DHT22;69869;48.036;15.780;2023-07-20T05:50:09;23.30;87.60
80540;DHT22;69869;48.036;15.780;2023-07-20T05:52:35;23.30;87.30
80540;DHT22;69869;48.036;15.780;2023-07-20T05:55:01;23.30;87.80
80540;DHT22;69869;48.036;15.780;2023-07-20T05:57:26;23.30;87.40
80540;DHT22;69869;48.036;15.780;2023-07-20T05:59:52;23.30;87.50
80540;DHT22;69869;48.036;15.780;2023-07-20T06:02:17;23.30;87.70
80540;DHT22;69869;48.036;15.780;2023-07-20T06:04:43;23.30;87.60
80540;DHT22;69869;48.036;15.780;2023-07-20T06:07:09;23.30;87.30
80540;DHT22;69869;48.036;15.780;2023-07-20T06:09:35;23.30;87.50
80540;DHT22;69869;48.036;15.780;2023-07-20T06:12:01;23.30;87.40
80540;DHT22;69869;48.036;15.780;2023-07-20T06:14:26;23.30;87.60
80540;DHT22;69869;48.036;15.780;2023-07-20T06:16:52;23.30;87.70
80540;DHT22;69869;48.036;15.780;2023-07-20T06:19:18;23.30;87.50
80540;DHT22;69869;48.036;15.780;2023-07-20T06:21:43;23.30;87.30
80540;DHT22;69869;48.036;15.780;2023-07-20T06:24:09;23.30;87.50
80540;DHT22;69869;48.036;15.780;2023-07-20T06:26:35;23.30;87.50
80540;DHT22;69869;48.036;15.780;2023-07-20T06:29:05;23.30;87.50
80540;DHT22;69869;48.036;15.780;2023-07-20T06:31:32;23.30;87.20
80540;DHT22;69869;48.036;15.780;2023-07-20T06:33:58;23.30;86.90
80540;DHT22;69869;48.036;15.780;2023-07-20T06:36:24;23.30;87.40
80540;DHT22;69869;48.036;15.780;2023-07-20T06:38:51;23.30;87.50
80540;DHT22;69869;48.036;15.780;2023-07-20T06:41:17;23.30;87.40
80540;DHT22;69869;48.036;15.780;2023-07-20T06:43:43;23.30;87.20
80540;DHT22;69869;48.036;15.780;2023-07-20T06:46:09;23.30;87.40
80540;DHT22;69869;48.036;15.780;2023-07-20T06:48:34;23.30;87.30
80540;DHT22;69869;48.036;15.780;2023-07-20T06:51:00;23.30;87.30
80540;DHT22;69869;48.036;15.780;2023-07-20T06:53:26;23.30;87.40
80540;DHT22;69869;48.036;15.780;2023-07-20T06:55:51;23.30;87.30
80540;DHT22;69869;48.036;15.780;2023-07-20T06:58:17;23.30;87.40
80540;DHT22;69869;48.036;15.780;2023-07-20T07:00:43;23.30;87.50
80540;DHT22;69869;48.036;15.780;2023-07-20T07:03:10;23.20;87.00
80540;DHT22;69869;48.036;15.780;2023-07-20T07:05:38;23.30;87.60
80540;DHT22;69869;48.036;15.780;2023-07-20T07:08:05;23.30;87.50
80540;DHT22;69869;48.036;15.780;2023-07-20T07:10:31;23.30;87.40
80540;DHT22;69869;48.036;15.780;2023-07-20T07:12:56;23.30;86.80
80540;DHT22;69869;48.036;15.780;2023-07-20T07:15:22;23.30;87.20
80540;DHT22;69869;48.036;15.780;2023-07-20T07:17:48;23.30;87.40
80540;DHT22;69869;48.036;15.780;2023-07-20T07:20:13;23.30;87.60
80540;DHT22;69869;48.036;15.780;2023-07-20T07:22:39;23.30;87.20
80540;DHT22;69869;48.036;15.780;2023-07-20T07:25:05;23.30;87.40
80540;DHT22;69869;48.036;15.780;2023-07-20T07:27:31;23.30;87.50
80540;DHT22;69869;48.036;15.780;2023-07-20T07:29:56;23.30;87.40
80540;DHT22;69869;48.036;15.780;2023-07-20T07:32:22;23.20;87.10
80540;DHT22;69869;48.036;15.780;2023-07-20T07:34:48;23.30;87.10
80540;DHT22;69869;48.036;15.780;2023-07-20T07:37:14;23.30;87.40
80540;DHT22;69869;48.036;15.780;2023-07-20T07:39:40;23.20;87.30
80540;DHT22;69869;48.036;15.780;2023-07-20T07:42:05;23.20;87.10
80540;DHT22;69869;48.036;15.780;2023-07-20T07:44:31;23.30;87.40
80540;DHT22;69869;48.036;15.780;2023-07-20T07:46:57;23.30;87.20
80540;DHT22;69869;48.036;15.780;2023-07-20T07:49:23;23.20;87.20
80540;DHT22;69869;48.036;15.780;2023-07-20T07:51:49;23.30;87.20
80540;DHT22;69869;48.036;15.780;2023-07-20T07:54:15;23.20;87.20
80540;DHT22;69869;48.036;15.780;2023-07-20T07:56:41;23.30;87.30
80540;DHT22;69869;48.036;15.780;2023-07-20T07:59:07;23.20;87.00
80540;DHT22;69869;48.036;15.780;2023-07-20T08:01:32;23.30;87.20
80540;DHT22;69869;48.036;15.780;2023-07-20T08:03:58;23.20;86.60
80540;DHT22;69869;48.036;15.780;2023-07-20T08:06:24;23.20;86.50
80540;DHT22;69869;48.036;15.780;2023-07-20T08:08:50;23.20;87.00
80540;DHT22;69869;48.036;15.780;2023-07-20T08:11:15;23.20;87.00
80540;DHT22;69869;48.036;15.780;2023-07-20T08:13:43;23.20;87.10
80540;DHT22;69869;48.036;15.780;2023-07-20T08:16:09;23.20;86.70
80540;DHT22;69869;48.036;15.780;2023-07-20T08:18:34;23.20;86.70
80540;DHT22;69869;48.036;15.780;2023-07-20T08:21:00;23.20;86.70
80540;DHT22;69869;48.036;15.780;2023-07-20T08:23:25;23.20;86.00
80540;DHT22;69869;48.036;15.780;2023-07-20T08:25:53;23.20;86.50
80540;DHT22;69869;48.036;15.780;2023-07-20T08:28:19;23.20;86.50
80540;DHT22;69869;48.036;15.780;2023-07-20T08:30:47;23.20;86.00
80540;DHT22;69869;48.036;15.780;2023-07-20T08:33:17;23.20;86.60
80540;DHT22;69869;48.036;15.780;2023-07-20T08:35:46;23.20;86.30
80540;DHT22;69869;48.036;15.780;2023-07-20T08:38:12;23.20;86.70
80540;DHT22;69869;48.036;15.780;2023-07-20T08:40:41;23.20;86.20
80540;DHT22;69869;48.036;15.780;2023-07-20T08:43:07;23.20;86.60
80540;DHT22;69869;48.036;15.780;2023-07-20T08:45:34;23.20;86.00
80540;DHT22;69869;48.036;15.780;2023-07-20T08:48:00;23.20;86.00
80540;DHT22;69869;48.036;15.780;2023-07-20T08:50:30;23.20;86.40
80540;DHT22;69869;48.036;15.780;2023-07-20T08:52:57;23.20;86.70
80540;DHT22;69869;48.036;15.780;2023-07-20T08:55:25;23.20;86.60
80540;DHT22;69869;48.036;15.780;2023-07-20T08:57:54;23.20;86.40
80540;DHT22;69869;48.036;15.780;2023-07-20T09:00:21;23.20;86.70
80540;DHT22;69869;48.036;15.780;2023-07-20T09:02:53;23.20;86.90
80540;DHT22;69869;48.036;15.780;2023-07-20T09:05:23;23.20;86.30
80540;DHT22;69869;48.036;15.780;2023-07-20T09:07:52;23.20;86.70
80540;DHT22;69869;48.036;15.780;2023-07-20T09:10:29;23.20;86.20
80540;DHT22;69869;48.036;15.780;2023-07-20T09:12:54;23.20;86.40
80540;DHT22;69869;48.036;15.780;2023-07-20T09:15:22;23.20;86.00
80540;DHT22;69869;48.036;15.780;2023-07-20T09:17:49;23.20;86.50
80540;DHT22;69869;48.036;15.780;2023-07-20T09:20:19;23.20;85.60
80540;DHT22;69869;48.036;15.780;2023-07-20T09:22:45;23.20;85.10
80540;DHT22;69869;48.036;15.780;2023-07-20T09:25:17;23.20;85.60
80540;DHT22;69869;48.036;15.780;2023-07-20T09:27:45;23.20;85.10
80540;DHT22;69869;48.036;15.780;2023-07-20T09:30:12;23.20;85.40
80540;DHT22;69869;48.036;15.780;2023-07-20T09:32:47;23.20;85.20
80540;DHT22;69869;48.036;15.780;2023-07-20T09:35:17;23.20;85.80
80540;DHT22;69869;48.036;15.780;2023-07-20T09:38:01;23.20;85.40
80540;DHT22;69869;48.036;15.780;2023-07-20T09:40:28;23.20;86.00
80540;DHT22;69869;48.036;15.780;2023-07-20T09:42:54;23.20;85.40
80540;DHT22;69869;48.036;15.780;2023-07-20T09:45:44;23.20;85.60
80540;DHT22;69869;48.036;15.780;2023-07-20T09:48:11;23.20;85.70
80540;DHT22;69869;48.036;15.780;2023-07-20T09:50:40;23.20;85.20
80540;DHT22;69869;48.036;15.780;2023-07-20T09:53:12;23.20;85.00
80540;DHT22;69869;48.036;15.780;2023-07-20T09:55:41;23.30;85.40
80540;DHT22;69869;48.036;15.780;2023-07-20T09:58:09;23.20;85.20
80540;DHT22;69869;48.036;15.780;2023-07-20T10:00:39;23.20;85.50
80540;DHT22;69869;48.036;15.780;2023-07-20T10:03:05;23.20;85.10
80540;DHT22;69869;48.036;15.780;2023-07-20T10:05:36;23.20;85.10
80540;DHT22;69869;48.036;15.780;2023-07-20T10:08:04;23.20;85.40
80540;DHT22;69869;48.036;15.780;2023-07-20T10:10:33;23.20;85.00
80540;DHT22;69869;48.036;15.780;2023-07-20T10:13:00;23.20;85.50
80540;DHT22;69869;48.036;15.780;2023-07-20T10:15:36;23.20;85.30
80540;DHT22;69869;48.036;15.780;2023-07-20T10:18:12;23.20;85.10
80540;DHT22;69869;48.036;15.780;2023-07-20T10:20:40;23.20;85.20
80540;DHT22;69869;48.036;15.780;2023-07-20T10:23:09;23.20;85.00
80540;DHT22;69869;48.036;15.780;2023-07-20T10:25:35;23.20;85.30
80540;DHT22;69869;48.036;15.780;2023-07-20T10:28:06;23.20;84.80
80540;DHT22;69869;48.036;15.780;2023-07-20T10:30:34;23.20;85.80
80540;DHT22;69869;48.036;15.780;2023-07-20T10:33:03;23.20;85.50
80540;DHT22;69869;48.036;15.780;2023-07-20T10:35:29;23.20;85.10
80540;DHT22;69869;48.036;15.780;2023-07-20T10:38:04;23.20;85.00
80540;DHT22;69869;48.036;15.780;2023-07-20T10:40:37;23.20;85.10
80540;DHT22;69869;48.036;15.780;2023-07-20T10:43:08;23.20;84.90
80540;DHT22;69869;48.036;15.780;2023-07-20T10:45:34;23.20;85.20
80540;DHT22;69869;48.036;15.780;2023-07-20T10:48:21;23.20;84.90
80540;DHT22;69869;48.036;15.780;2023-07-20T10:51:10;23.20;84.70
80540;DHT22;69869;48.036;15.780;2023-07-20T10:53:36;23.20;84.60
80540;DHT22;69869;48.036;15.780;2023-07-20T10:56:13;23.20;84.90
80540;DHT22;69869;48.036;15.780;2023-07-20T10:58:40;23.20;84.80
80540;DHT22;69869;48.036;15.780;2023-07-20T11:01:06;23.20;84.00
80540;DHT22;69869;48.036;15.780;2023-07-20T11:03:37;23.20;84.50
80540;DHT22;69869;48.036;15.780;2023-07-20T11:06:30;23.20;85.10
80540;DHT22;69869;48.036;15.780;2023-07-20T11:09:23;23.20;84.50
80540;DHT22;69869;48.036;15.780;2023-07-20T11:12:18;23.20;85.20
80540;DHT22;69869;48.036;15.780;2023-07-20T11:14:54;23.20;84.60
80540;DHT22;69869;48.036;15.780;2023-07-20T11:17:20;23.20;84.40
80540;DHT22;69869;48.036;15.780;2023-07-20T11:19:55;23.20;83.80
80540;DHT22;69869;48.036;15.780;2023-07-20T11:22:22;23.20;84.10
80540;DHT22;69869;48.036;15.780;2023-07-20T11:24:48;23.20;84.40
80540;DHT22;69869;48.036;15.780;2023-07-20T11:27:14;23.20;83.80
80540;DHT22;69869;48.036;15.780;2023-07-20T11:29:40;23.20;84.30
80540;DHT22;69869;48.036;15.780;2023-07-20T11:32:06;23.20;83.90
80540;DHT22;69869;48.036;15.780;2023-07-20T11:34:34;23.20;83.70
80540;DHT22;69869;48.036;15.780;2023-07-20T11:37:00;23.20;83.60
80540;DHT22;69869;48.036;15.780;2023-07-20T11:39:26;23.20;83.40
80540;DHT22;69869;48.036;15.780;2023-07-20T11:41:57;23.20;84.10
80540;DHT22;69869;48.036;15.780;2023-07-20T11:44:24;23.30;83.50
80540;DHT22;69869;48.036;15.780;2023-07-20T11:47:19;23.30;83.60
80540;DHT22;69869;48.036;15.780;2023-07-20T11:49:45;23.20;83.80
80540;DHT22;69869;48.036;15.780;2023-07-20T11:52:16;23.30;83.70
80540;DHT22;69869;48.036;15.780;2023-07-20T11:54:42;23.30;83.10
80540;DHT22;69869;48.036;15.780;2023-07-20T11:57:19;23.30;84.00
80540;DHT22;69869;48.036;15.780;2023-07-20T12:00:00;23.30;83.40
80540;DHT22;69869;48.036;15.780;2023-07-20T12:02:28;23.30;83.80
80540;DHT22;69869;48.036;15.780;2023-07-20T12:04:57;23.30;83.60
80540;DHT22;69869;48.036;15.780;2023-07-20T12:07:25;23.20;83.30
80540;DHT22;69869;48.036;15.780;2023-07-20T12:10:10;23.20;83.20
80540;DHT22;69869;48.036;15.780;2023-07-20T12:12:43;23.20;83.10
80540;DHT22;69869;48.036;15.780;2023-07-20T12:15:26;23.20;82.80
80540;DHT22;69869;48.036;15.780;2023-07-20T12:17:56;23.20;83.20
80540;DHT22;69869;48.036;15.780;2023-07-20T12:20:26;23.20;83.20
80540;DHT22;69869;48.036;15.780;2023-07-20T12:22:52;23.20;84.60
80540;DHT22;69869;48.036;15.780;2023-07-20T12:25:17;23.20;83.10
80540;DHT22;69869;48.036;15.780;2023-07-20T12:27:47;23.20;83.30
80540;DHT22;69869;48.036;15.780;2023-07-20T12:30:13;23.20;83.00
80540;DHT22;69869;48.036;15.780;2023-07-20T12:32:39;23.20;83.40
80540;DHT22;69869;48.036;15.780;2023-07-20T12:35:05;23.20;83.10
80540;DHT22;69869;48.036;15.780;2023-07-20T12:37:32;23.20;82.80
80540;DHT22;69869;48.036;15.780;2023-07-20T12:39:57;23.20;83.30
80540;DHT22;69869;48.036;15.780;2023-07-20T12:42:23;23.20;83.50
80540;DHT22;69869;48.036;15.780;2023-07-20T12:44:49;23.20;83.70
80540;DHT22;69869;48.036;15.780;2023-07-20T12:47:17;23.20;83.60
80540;DHT22;69869;48.036;15.780;2023-07-20T12:49:44;23.20;83.40
80540;DHT22;69869;48.036;15.780;2023-07-20T12:52:11;23.20;83.60
80540;DHT22;69869;48.036;15.780;2023-07-20T12:54:36;23.20;83.50
80540;DHT22;69869;48.036;15.780;2023-07-20T12:57:02;23.20;83.30
80540;DHT22;69869;48.036;15.780;2023-07-20T12:59:29;23.20;83.00
80540;DHT22;69869;48.036;15.780;2023-07-20T13:01:54;23.20;83.40
80540;DHT22;69869;48.036;15.780;2023-07-20T13:04:20;23.20;84.00
80540;DHT22;69869;48.036;15.780;2023-07-20T13:06:45;23.20;83.70
80540;DHT22;69869;48.036;15.780;2023-07-20T13:09:11;23.20;83.50
80540;DHT22;69869;48.036;15.780;2023-07-20T13:11:37;23.20;83.90
80540;DHT22;69869;48.036;15.780;2023-07-20T13:14:02;23.20;83.40
80540;DHT22;69869;48.036;15.780;2023-07-20T13:16:28;23.20;83.60
80540;DHT22;69869;48.036;15.780;2023-07-20T13:18:54;23.20;83.70
80540;DHT22;69869;48.036;15.780;2023-07-20T13:21:19;23.20;83.80
80540;DHT22;69869;48.036;15.780;2023-07-20T13:23:48;23.20;83.40
80540;DHT22;69869;48.036;15.780;2023-07-20T13:26:17;23.20;83.40
80540;DHT22;69869;48.036;15.780;2023-07-20T13:28:43;23.20;83.80
80540;DHT22;69869;48.036;15.780;2023-07-20T13:31:08;23.20;83.10
80540;DHT22;69869;48.036;15.780;2023-07-20T13:33:36;23.20;84.30
80540;DHT22;69869;48.036;15.780;2023-07-20T13:36:02;23.20;84.00
80540;DHT22;69869;48.036;15.780;2023-07-20T13:38:27;23.20;83.50
80540;DHT22;69869;48.036;15.780;2023-07-20T13:40:53;23.20;83.70
80540;DHT22;69869;48.036;15.780;2023-07-20T13:43:19;23.20;83.70
80540;DHT22;69869;48.036;15.780;2023-07-20T13:45:44;23.20;83.30
80540;DHT22;69869;48.036;15.780;2023-07-20T13:48:10;23.20;84.30
80540;DHT22;69869;48.036;15.780;2023-07-20T13:50:35;23.20;83.60
80540;DHT22;69869;48.036;15.780;2023-07-20T13:53:01;23.20;83.90
80540;DHT22;69869;48.036;15.780;2023-07-20T13:55:28;23.20;84.20
80540;DHT22;69869;48.036;15.780;2023-07-20T13:57:56;23.20;83.80
80540;DHT22;69869;48.036;15.780;2023-07-20T14:00:22;23.20;83.80
80540;DHT22;69869;48.036;15.780;2023-07-20T14:02:47;23.20;83.20
80540;DHT22;69869;48.036;15.780;2023-07-20T14:05:13;23.20;83.10
80540;DHT22;69869;48.036;15.780;2023-07-20T14:07:41;23.20;83.30
80540;DHT22;69869;48.036;15.780;2023-07-20T14:10:07;23.20;84.30
80540;DHT22;69869;48.036;15.780;2023-07-20T14:12:33;23.20;83.40
80540;DHT22;69869;48.036;15.780;2023-07-20T14:14:58;23.20;83.00
80540;DHT22;69869;48.036;15.780;2023-07-20T14:17:24;23.20;83.30
80540;DHT22;69869;48.036;15.780;2023-07-20T14:19:51;23.20;83.70
80540;DHT22;69869;48.036;15.780;2023-07-20T14:22:16;23.20;83.40
80540;DHT22;69869;48.036;15.780;2023-07-20T14:24:42;23.20;83.40
80540;DHT22;69869;48.036;15.780;2023-07-20T14:27:07;23.20;83.10
80540;DHT22;69869;48.036;15.780;2023-07-20T14:29:33;23.20;83.10
80540;DHT22;69869;48.036;15.780;2023-07-20T14:32:01;23.30;83.30
80540;DHT22;69869;48.036;15.780;2023-07-20T14:34:28;23.30;83.60
80540;DHT22;69869;48.036;15.780;2023-07-20T14:36:53;23.30;82.70
80540;DHT22;69869;48.036;15.780;2023-07-20T14:39:19;23.40;83.50
80540;DHT22;69869;48.036;15.780;2023-07-20T14:41:45;23.40;82.50
80540;DHT22;69869;48.036;15.780;2023-07-20T14:44:11;23.40;82.60
80540;DHT22;69869;48.036;15.780;2023-07-20T14:46:37;23.50;82.40
80540;DHT22;69869;48.036;15.780;2023-07-20T14:49:02;23.50;82.60
80540;DHT22;69869;48.036;15.780;2023-07-20T14:51:28;23.50;81.60
80540;DHT22;69869;48.036;15.780;2023-07-20T14:53:59;23.50;82.00
80540;DHT22;69869;48.036;15.780;2023-07-20T14:56:25;23.60;80.70
80540;DHT22;69869;48.036;15.780;2023-07-20T14:58:51;23.60;82.10
80540;DHT22;69869;48.036;15.780;2023-07-20T15:01:17;23.60;81.50
80540;DHT22;69869;48.036;15.780;2023-07-20T15:03:43;23.60;82.00
80540;DHT22;69869;48.036;15.780;2023-07-20T15:06:12;23.60;81.70
80540;DHT22;69869;48.036;15.780;2023-07-20T15:08:37;23.70;81.40
80540;DHT22;69869;48.036;15.780;2023-07-20T15:11:03;23.70;82.10
80540;DHT22;69869;48.036;15.780;2023-07-20T15:13:29;23.70;82.20
80540;DHT22;69869;48.036;15.780;2023-07-20T15:15:54;23.60;80.60
80540;DHT22;69869;48.036;15.780;2023-07-20T15:18:20;23.60;82.60
80540;DHT22;69869;48.036;15.780;2023-07-20T15:20:45;23.60;82.10